createdAt,value
2022-08-26T00:01:56.244Z,14.40
2022-08-26T00:04:24.606Z,15.10
2022-08-26T00:06:54.485Z,15.00
2022-08-26T00:09:22.905Z,14.60
2022-08-26T00:11:55.553Z,14.60
2022-08-26T00:14:31.033Z,14.30
2022-08-26T00:16:59.066Z,14.00
2022-08-26T00:19:29.552Z,13.90
2022-08-26T00:22:00.017Z,14.30
2022-08-26T00:24:28.263Z,14.20
2022-08-26T00:26:55.561Z,13.00
2022-08-26T00:29:22.736Z,13.50
2022-08-26T00:31:50.719Z,13.00
2022-08-26T00:34:19.639Z,11.90
2022-08-26T00:36:47.698Z,12.30
2022-08-26T00:39:16.233Z,12.60
2022-08-26T00:41:44.388Z,11.40
2022-08-26T00:44:11.668Z,12.50
2022-08-26T00:46:58.947Z,12.20
2022-08-26T00:49:42.496Z,11.50
2022-08-26T00:52:18.037Z,24.60
2022-08-26T00:54:53.163Z,29.80
2022-08-26T00:57:22.666Z,15.40
2022-08-26T01:00:02.239Z,22.20
2022-08-26T01:02:29.627Z,12.30
2022-08-26T01:05:03.440Z,11.40
2022-08-26T01:07:32.694Z,10.20
2022-08-26T01:10:08.988Z,11.10
2022-08-26T01:12:42.166Z,10.80
2022-08-26T01:15:15.028Z,11.10
2022-08-26T01:17:42.496Z,11.30
2022-08-26T01:20:37.617Z,10.60
2022-08-26T01:23:10.556Z,11.20
2022-08-26T01:25:40.899Z,11.10
2022-08-26T01:28:18.955Z,11.00
2022-08-26T01:30:47.723Z,11.60
2022-08-26T01:33:46.942Z,11.30
2022-08-26T01:36:29.055Z,11.60
2022-08-26T01:38:57.149Z,12.50
2022-08-26T01:41:36.292Z,12.50
2022-08-26T01:44:09.787Z,11.10
2022-08-26T01:46:40.621Z,13.00
2022-08-26T01:49:12.454Z,12.40
2022-08-26T01:51:43.254Z,13.40
2022-08-26T01:54:13.735Z,12.80
2022-08-26T01:56:41.370Z,13.70
2022-08-26T01:59:12.258Z,13.90
2022-08-26T02:01:39.588Z,13.60
2022-08-26T02:04:20.408Z,13.50
2022-08-26T02:06:48.950Z,14.10
2022-08-26T02:09:18.392Z,14.80
2022-08-26T02:11:51.151Z,14.70
2022-08-26T02:14:28.975Z,15.30
2022-08-26T02:17:12.517Z,14.90
2022-08-26T02:19:44.717Z,14.90
2022-08-26T02:22:20.824Z,15.10
2022-08-26T02:24:52.285Z,15.30
2022-08-26T02:27:23.829Z,14.90
2022-08-26T02:30:19.313Z,14.70
2022-08-26T02:32:49.582Z,15.70
2022-08-26T02:35:20.356Z,16.50
2022-08-26T02:37:49.352Z,17.30
2022-08-26T02:40:23.346Z,17.00
2022-08-26T02:42:53.089Z,15.60
2022-08-26T02:45:25.955Z,16.80
2022-08-26T02:47:53.291Z,16.60
2022-08-26T02:50:26.506Z,16.50
2022-08-26T02:53:01.497Z,17.10
2022-08-26T02:55:31.973Z,16.80
2022-08-26T02:58:00.800Z,16.40
2022-08-26T03:00:28.993Z,16.80
2022-08-26T03:02:57.730Z,17.40
2022-08-26T03:05:25.400Z,17.10
2022-08-26T03:07:52.438Z,17.60
2022-08-26T03:10:20.934Z,16.40
2022-08-26T03:12:48.165Z,18.00
2022-08-26T03:15:18.103Z,18.10
2022-08-26T03:17:47.674Z,17.70
2022-08-26T03:20:17.442Z,18.30
2022-08-26T03:22:44.858Z,18.10
2022-08-26T03:25:16.042Z,16.80
2022-08-26T03:27:43.245Z,17.80
2022-08-26T03:30:32.610Z,18.10
2022-08-26T03:33:01.679Z,19.20
2022-08-26T03:35:31.222Z,18.20
2022-08-26T03:37:59.791Z,18.40
2022-08-26T03:40:30.772Z,19.10
2022-08-26T03:42:58.041Z,19.40
2022-08-26T03:45:27.208Z,18.70
2022-08-26T03:48:02.830Z,19.50
2022-08-26T03:50:34.271Z,19.80
2022-08-26T03:53:12.903Z,19.30
2022-08-26T03:58:10.442Z,18.70
2022-08-26T04:00:38.893Z,19.00
2022-08-26T04:03:06.591Z,20.00
2022-08-26T04:05:37.751Z,20.10
2022-08-26T04:08:08.312Z,19.60
2022-08-26T04:10:37.890Z,19.20
2022-08-26T04:13:05.382Z,22.80
2022-08-26T04:15:32.229Z,23.80
2022-08-26T04:18:00.789Z,22.20
2022-08-26T04:20:27.959Z,20.10
2022-08-26T04:22:55.054Z,20.90
2022-08-26T04:25:25.655Z,20.60
2022-08-26T04:27:54.489Z,21.00
2022-08-26T04:30:21.505Z,20.10
2022-08-26T04:32:49.365Z,20.10
2022-08-26T04:35:17.282Z,20.80
2022-08-26T04:37:44.363Z,20.60
2022-08-26T04:40:11.686Z,20.60
2022-08-26T04:42:38.705Z,21.00
2022-08-26T04:45:09.978Z,21.60
2022-08-26T04:47:38.347Z,22.50
2022-08-26T04:50:06.668Z,22.10
2022-08-26T04:52:36.200Z,21.50
2022-08-26T04:55:06.505Z,21.00
2022-08-26T04:57:33.720Z,21.70
2022-08-26T05:00:01.507Z,21.10
2022-08-26T05:02:36.049Z,22.10
2022-08-26T05:05:06.687Z,21.60
2022-08-26T05:07:34.770Z,22.90
2022-08-26T05:10:04.031Z,22.80
2022-08-26T05:12:35.899Z,23.00
2022-08-26T05:15:09.823Z,23.90
2022-08-26T05:17:37.701Z,24.20
2022-08-26T05:20:06.232Z,22.70
2022-08-26T05:22:34.567Z,25.30
2022-08-26T05:25:01.813Z,24.40
2022-08-26T05:27:30.399Z,24.40
2022-08-26T05:29:57.592Z,24.40
2022-08-26T05:32:25.067Z,25.80
2022-08-26T05:34:58.589Z,23.60
2022-08-26T05:37:26.003Z,24.30
2022-08-26T05:39:53.052Z,24.50
2022-08-26T05:42:20.046Z,24.70
2022-08-26T05:44:56.366Z,24.50
2022-08-26T05:47:24.015Z,25.70
2022-08-26T05:49:51.269Z,27.60
2022-08-26T05:52:19.831Z,24.70
2022-08-26T05:54:47.168Z,33.40
2022-08-26T05:57:15.371Z,25.60
2022-08-26T05:59:42.209Z,23.90
2022-08-26T06:03:20.711Z,24.60
2022-08-26T06:06:35.489Z,31.50
2022-08-26T06:09:21.022Z,57.60
2022-08-26T06:11:58.971Z,35.90
2022-08-26T06:14:30.258Z,30.00
2022-08-26T06:16:58.644Z,26.40
2022-08-26T06:19:26.048Z,24.80
2022-08-26T06:22:23.908Z,27.50
2022-08-26T06:25:10.317Z,45.30
2022-08-26T06:27:38.482Z,34.90
2022-08-26T06:30:06.815Z,35.70
2022-08-26T06:32:57.783Z,26.10
2022-08-26T06:35:26.789Z,39.50
2022-08-26T06:37:53.789Z,50.40
2022-08-26T06:40:23.203Z,35.40
2022-08-26T06:42:55.580Z,35.20
2022-08-26T06:45:23.662Z,34.50
2022-08-26T06:47:52.191Z,26.30
2022-08-26T06:50:20.633Z,26.10
2022-08-26T06:52:48.049Z,25.40
2022-08-26T06:55:15.447Z,24.70
2022-08-26T06:57:43.015Z,25.40
2022-08-26T07:00:11.540Z,23.50
2022-08-26T07:02:39.963Z,22.70
2022-08-26T07:05:07.450Z,24.10
2022-08-26T07:07:53.225Z,20.90
2022-08-26T07:10:49.136Z,22.80
2022-08-26T07:13:34.150Z,23.30
2022-08-26T07:16:07.666Z,23.80
2022-08-26T07:18:45.025Z,23.30
2022-08-26T07:21:19.806Z,24.50
2022-08-26T07:23:50.105Z,23.00
2022-08-26T07:26:26.264Z,22.50
2022-08-26T07:29:00.035Z,21.60
2022-08-26T07:31:47.449Z,45.80
2022-08-26T07:34:26.550Z,42.10
2022-08-26T07:36:59.847Z,39.70
2022-08-26T07:39:34.219Z,24.70
2022-08-26T07:42:13.621Z,24.50
2022-08-26T07:44:43.963Z,27.10
2022-08-26T07:47:25.468Z,23.70
2022-08-26T07:49:56.824Z,22.60
2022-08-26T07:52:44.784Z,22.00
2022-08-26T07:56:03.580Z,23.30
2022-08-26T07:58:45.748Z,23.40
2022-08-26T08:01:33.105Z,23.10
2022-08-26T08:04:05.810Z,22.70
2022-08-26T08:07:00.918Z,27.50
2022-08-26T08:09:37.387Z,24.80
2022-08-26T08:12:21.421Z,23.00
2022-08-26T08:15:09.119Z,23.60
2022-08-26T08:17:39.909Z,23.90
2022-08-26T08:20:14.785Z,22.00
2022-08-26T08:23:04.153Z,21.50
2022-08-26T08:25:43.897Z,22.30
2022-08-26T08:28:17.809Z,22.00
2022-08-26T08:30:50.493Z,21.30
2022-08-26T08:33:23.880Z,23.00
2022-08-26T08:35:57.068Z,23.50
2022-08-26T08:38:25.103Z,21.90
2022-08-26T08:40:59.049Z,21.50
2022-08-26T08:43:27.232Z,21.30
2022-08-26T08:46:16.885Z,19.80
2022-08-26T08:49:07.923Z,19.20
2022-08-26T08:52:12.519Z,20.30
2022-08-26T08:54:40.011Z,19.10
2022-08-26T08:57:28.626Z,19.20
2022-08-26T09:00:11.155Z,19.60
2022-08-26T09:02:53.103Z,19.60
2022-08-26T09:05:39.878Z,20.30
2022-08-26T09:08:19.723Z,22.20
2022-08-26T09:10:53.989Z,21.90
2022-08-26T09:13:27.375Z,18.50
2022-08-26T09:16:10.066Z,18.70
2022-08-26T09:19:14.382Z,16.70
2022-08-26T09:22:06.999Z,18.50
2022-08-26T09:24:41.756Z,18.00
2022-08-26T09:27:44.001Z,17.10
2022-08-26T09:30:23.163Z,18.80
2022-08-26T09:33:10.365Z,15.70
2022-08-26T09:35:46.979Z,16.40
2022-08-26T09:38:28.028Z,16.10
2022-08-26T09:41:05.272Z,16.60
2022-08-26T09:43:41.453Z,16.50
2022-08-26T09:46:36.335Z,16.20
2022-08-26T09:49:46.424Z,17.90
2022-08-26T09:52:35.326Z,17.80
2022-08-26T09:55:26.888Z,16.70
2022-08-26T09:57:55.508Z,24.60
2022-08-26T10:00:27.421Z,24.40
2022-08-26T10:03:08.142Z,21.10
2022-08-26T10:08:23.152Z,17.40
2022-08-26T10:10:53.104Z,15.60
2022-08-26T10:13:29.542Z,15.00
2022-08-26T10:16:08.179Z,15.40
2022-08-26T10:19:05.839Z,14.50
2022-08-26T10:21:59.904Z,14.50
2022-08-26T10:24:37.451Z,15.80
2022-08-26T10:27:27.558Z,13.70
2022-08-26T10:30:18.362Z,13.70
2022-08-26T10:33:09.737Z,50.80
2022-08-26T10:36:00.576Z,40.70
2022-08-26T10:38:51.020Z,18.70
2022-08-26T10:41:41.400Z,13.70
2022-08-26T10:44:14.841Z,13.30
2022-08-26T10:47:06.273Z,49.40
2022-08-26T10:49:42.412Z,22.20
2022-08-26T10:52:48.607Z,20.20
2022-08-26T10:55:44.130Z,14.30
2022-08-26T10:58:44.764Z,40.00
2022-08-26T11:01:41.269Z,33.80
2022-08-26T11:05:10.772Z,41.10
2022-08-26T11:07:45.903Z,11.00
2022-08-26T11:10:16.164Z,10.40
2022-08-26T11:12:44.899Z,9.80
2022-08-26T11:15:33.540Z,10.30
2022-08-26T11:18:08.424Z,9.40
2022-08-26T11:20:42.458Z,10.40
2022-08-26T11:23:21.970Z,10.00
2022-08-26T11:26:01.133Z,11.30
2022-08-26T11:28:36.012Z,10.50
2022-08-26T11:31:07.124Z,9.40
2022-08-26T11:33:51.007Z,10.00
2022-08-26T11:36:37.211Z,9.30
2022-08-26T11:39:19.903Z,8.20
2022-08-26T11:41:52.868Z,8.60
2022-08-26T11:44:28.377Z,8.20
2022-08-26T11:47:02.776Z,8.40
2022-08-26T11:49:32.463Z,8.70
2022-08-26T11:52:21.947Z,7.80
2022-08-26T11:55:16.243Z,7.90
2022-08-26T11:57:51.064Z,8.10
2022-08-26T12:00:27.048Z,8.50
2022-08-26T12:02:55.147Z,7.90
2022-08-26T12:05:29.572Z,7.90
2022-08-26T12:08:08.731Z,26.50
2022-08-26T12:10:36.740Z,41.60
2022-08-26T12:13:05.844Z,10.70
2022-08-26T12:15:35.300Z,8.20
2022-08-26T12:18:28.977Z,7.90
2022-08-26T12:21:10.504Z,7.00
2022-08-26T12:23:46.894Z,7.50
2022-08-26T12:26:37.598Z,7.10
2022-08-26T12:29:09.429Z,7.60
2022-08-26T12:31:47.429Z,6.80
2022-08-26T12:34:18.059Z,6.90
2022-08-26T12:36:53.625Z,7.40
2022-08-26T12:39:36.608Z,7.20
2022-08-26T12:42:21.295Z,7.50
2022-08-26T12:45:06.395Z,8.50
2022-08-26T12:47:44.009Z,7.80
2022-08-26T12:50:32.810Z,8.20
2022-08-26T12:53:05.201Z,8.50
2022-08-26T12:55:42.470Z,8.90
2022-08-26T12:58:21.152Z,9.80
2022-08-26T13:01:04.644Z,9.80
2022-08-26T13:03:44.368Z,9.80
2022-08-26T13:06:33.718Z,10.20
2022-08-26T13:09:24.730Z,10.10
2022-08-26T13:12:07.975Z,10.20
2022-08-26T13:14:54.599Z,10.20
2022-08-26T13:17:37.726Z,10.50
2022-08-26T13:20:12.989Z,10.90
2022-08-26T13:22:44.800Z,10.70
2022-08-26T13:25:30.100Z,11.30
2022-08-26T13:28:08.000Z,10.20
2022-08-26T13:30:51.433Z,10.10
2022-08-26T13:33:28.466Z,8.50
2022-08-26T13:36:12.043Z,8.60
2022-08-26T13:38:52.085Z,8.90
2022-08-26T13:41:28.927Z,8.10
2022-08-26T13:44:06.542Z,9.40
2022-08-26T13:46:43.018Z,8.80
2022-08-26T13:49:19.601Z,8.30
2022-08-26T13:51:59.025Z,7.40
2022-08-26T13:54:35.957Z,6.80
2022-08-26T13:57:16.012Z,7.80
2022-08-26T13:59:48.500Z,7.30
2022-08-26T14:02:24.658Z,10.60
2022-08-26T14:04:58.202Z,7.00
2022-08-26T14:07:33.133Z,7.10
2022-08-26T14:10:04.383Z,7.20
2022-08-26T14:12:44.660Z,8.80
2022-08-26T14:15:27.505Z,7.70
2022-08-26T14:18:15.636Z,7.70
2022-08-26T14:21:02.223Z,7.90
2022-08-26T14:23:38.591Z,7.90
2022-08-26T14:26:08.072Z,10.30
2022-08-26T14:28:38.601Z,18.70
2022-08-26T14:31:16.716Z,20.20
2022-08-26T14:34:30.040Z,8.10
2022-08-26T14:37:07.375Z,7.20
2022-08-26T14:39:50.627Z,7.10
2022-08-26T14:42:27.705Z,7.50
2022-08-26T14:45:28.016Z,6.30
2022-08-26T14:48:20.281Z,6.40
2022-08-26T14:51:11.115Z,6.40
2022-08-26T14:54:17.472Z,6.00
2022-08-26T14:56:53.706Z,5.60
2022-08-26T14:59:35.578Z,5.70
2022-08-26T15:02:22.225Z,5.40
2022-08-26T15:05:15.757Z,5.80
2022-08-26T15:07:50.746Z,5.90
2022-08-26T15:13:00.040Z,5.50
2022-08-26T15:16:02.827Z,5.50
2022-08-26T15:18:37.301Z,5.40
2022-08-26T15:21:11.668Z,5.60
2022-08-26T15:23:41.712Z,5.40
2022-08-26T15:26:29.514Z,7.10
2022-08-26T15:28:59.860Z,5.70
2022-08-26T15:31:36.243Z,6.00
2022-08-26T15:34:12.096Z,6.30
2022-08-26T15:36:45.892Z,6.30
2022-08-26T15:39:21.504Z,5.60
2022-08-26T15:42:01.443Z,5.90
2022-08-26T15:44:46.863Z,5.60
2022-08-26T15:47:55.923Z,5.80
2022-08-26T15:50:22.241Z,5.70
2022-08-26T15:52:53.367Z,5.70
2022-08-26T15:55:23.008Z,5.60
2022-08-26T15:57:53.980Z,5.80
2022-08-26T16:00:22.514Z,5.70
2022-08-26T16:02:54.794Z,5.80
2022-08-26T16:05:53.423Z,5.40
2022-08-26T16:08:39.031Z,10.10
2022-08-26T16:11:13.050Z,59.10
2022-08-26T16:13:51.101Z,6.50
2022-08-26T16:16:26.821Z,6.20
2022-08-26T16:19:09.213Z,6.20
2022-08-26T16:21:41.840Z,6.40
2022-08-26T16:24:33.866Z,5.90
2022-08-26T16:27:08.159Z,6.00
2022-08-26T16:29:45.407Z,6.10
2022-08-26T16:32:12.201Z,5.60
2022-08-26T16:34:46.928Z,6.00
2022-08-26T16:37:23.049Z,6.10
2022-08-26T16:40:22.475Z,120.30
2022-08-26T16:42:55.204Z,120.50
2022-08-26T16:45:27.179Z,20.30
2022-08-26T16:48:08.362Z,8.90
2022-08-26T16:50:41.852Z,8.20
2022-08-26T16:53:21.805Z,8.10
2022-08-26T16:55:51.600Z,8.30
2022-08-26T16:58:21.987Z,9.40
2022-08-26T17:00:49.245Z,7.90
2022-08-26T17:03:25.023Z,8.80
2022-08-26T17:05:52.106Z,9.00
2022-08-26T17:08:27.461Z,7.60
2022-08-26T17:11:00.629Z,7.60
2022-08-26T17:13:35.048Z,8.40
2022-08-26T17:16:06.906Z,7.70
2022-08-26T17:18:34.586Z,7.40
2022-08-26T17:21:11.411Z,8.70
2022-08-26T17:23:40.999Z,8.20
2022-08-26T17:26:08.779Z,6.90
2022-08-26T17:28:36.089Z,7.10
2022-08-26T17:31:05.082Z,7.40
2022-08-26T17:33:46.697Z,7.70
2022-08-26T17:36:20.123Z,7.70
2022-08-26T17:41:16.903Z,6.90
2022-08-26T17:43:44.157Z,7.00
2022-08-26T17:46:17.142Z,7.30
2022-08-26T17:48:47.941Z,7.10
2022-08-26T17:51:18.692Z,7.10
2022-08-26T17:53:47.921Z,8.50
2022-08-26T17:56:35.422Z,9.50
2022-08-26T17:59:37.066Z,19.90
2022-08-26T18:02:05.882Z,16.40
2022-08-26T18:04:43.744Z,8.80
2022-08-26T18:07:15.322Z,23.20
2022-08-26T18:10:00.900Z,12.40
2022-08-26T18:12:28.803Z,8.00
2022-08-26T18:15:04.875Z,9.00
2022-08-26T18:17:55.743Z,8.00
2022-08-26T18:20:34.045Z,7.70
2022-08-26T18:23:01.213Z,8.00
2022-08-26T18:25:38.702Z,8.10
2022-08-26T18:28:09.408Z,7.80
2022-08-26T18:30:36.841Z,8.10
2022-08-26T18:33:04.060Z,8.20
2022-08-26T18:35:31.965Z,8.40
2022-08-26T18:38:01.413Z,8.20
2022-08-26T18:40:43.609Z,8.20
2022-08-26T18:43:45.165Z,7.90
2022-08-26T18:46:13.485Z,9.90
2022-08-26T18:48:50.842Z,16.20
2022-08-26T18:51:26.384Z,9.00
2022-08-26T18:53:56.059Z,8.40
2022-08-26T18:56:23.269Z,8.50
2022-08-26T18:58:54.188Z,8.20
2022-08-26T19:03:56.160Z,8.40
2022-08-26T19:06:25.190Z,8.80
2022-08-26T19:08:53.337Z,9.00
2022-08-26T19:11:31.642Z,8.70
2022-08-26T19:14:08.672Z,7.60
2022-08-26T19:16:39.327Z,8.60
2022-08-26T19:19:06.970Z,8.10
2022-08-26T19:21:38.062Z,8.60
2022-08-26T19:24:15.275Z,8.40
2022-08-26T19:26:49.051Z,8.70
2022-08-26T19:29:22.534Z,10.10
2022-08-26T19:31:53.090Z,18.40
2022-08-26T19:34:21.053Z,17.60
2022-08-26T19:36:49.284Z,8.60
2022-08-26T19:39:16.746Z,8.30
2022-08-26T19:41:44.022Z,8.80
2022-08-26T19:44:34.698Z,8.80
2022-08-26T19:47:03.295Z,8.60
2022-08-26T19:49:31.484Z,9.00
2022-08-26T19:51:59.179Z,9.40
2022-08-26T19:54:26.717Z,9.00
2022-08-26T19:56:54.208Z,9.10
2022-08-26T19:59:23.935Z,9.30
2022-08-26T20:02:00.617Z,9.00
2022-08-26T20:04:31.492Z,9.00
2022-08-26T20:07:20.508Z,9.20
2022-08-26T20:09:48.901Z,9.10
2022-08-26T20:12:19.003Z,8.80
2022-08-26T20:14:53.620Z,8.90
2022-08-26T20:17:21.715Z,9.20
2022-08-26T20:20:26.922Z,8.90
2022-08-26T20:23:04.848Z,8.20
2022-08-26T20:25:33.980Z,8.90
2022-08-26T20:28:04.952Z,8.50
2022-08-26T20:30:35.000Z,9.00
2022-08-26T20:33:02.393Z,8.50
2022-08-26T20:35:29.620Z,8.60
2022-08-26T20:38:00.135Z,22.60
2022-08-26T20:40:50.398Z,19.30
2022-08-26T20:43:26.781Z,9.20
2022-08-26T20:45:54.075Z,9.20
2022-08-26T20:48:24.363Z,9.00
2022-08-26T20:51:07.659Z,9.30
2022-08-26T20:53:35.426Z,8.60
2022-08-26T20:56:24.597Z,8.70
2022-08-26T20:59:02.683Z,8.50
2022-08-26T21:01:34.238Z,8.60
2022-08-26T21:04:08.226Z,8.50
2022-08-26T21:06:36.206Z,8.40
2022-08-26T21:09:14.701Z,8.80
2022-08-26T21:11:52.084Z,8.20
2022-08-26T21:14:20.271Z,9.30
2022-08-26T21:16:48.071Z,9.30
2022-08-26T21:19:18.034Z,8.90
2022-08-26T21:21:56.381Z,9.30
2022-08-26T21:24:26.723Z,9.10
2022-08-26T21:26:56.988Z,9.00
2022-08-26T21:29:34.575Z,34.60
2022-08-26T21:32:08.153Z,38.20
2022-08-26T21:35:26.269Z,14.70
2022-08-26T21:38:36.036Z,10.20
2022-08-26T21:42:20.786Z,8.90
2022-08-26T21:45:25.805Z,9.70
2022-08-26T21:48:39.690Z,11.30
2022-08-26T21:56:02.215Z,11.90
2022-08-26T22:01:51.802Z,13.60
2022-08-26T22:05:11.200Z,36.90
2022-08-26T22:07:49.687Z,18.20
2022-08-26T22:10:59.890Z,11.30
2022-08-26T22:17:00.083Z,10.70
2022-08-26T22:20:33.711Z,10.70
2022-08-26T22:23:08.196Z,11.40
2022-08-26T22:25:44.279Z,10.70
2022-08-26T22:28:16.677Z,11.90
2022-08-26T22:30:45.390Z,12.30
2022-08-26T22:33:27.342Z,13.00
2022-08-26T22:36:14.316Z,14.90
2022-08-26T22:38:51.388Z,14.00
2022-08-26T22:41:20.137Z,13.20
2022-08-26T22:43:47.983Z,12.80
2022-08-26T22:46:38.535Z,13.30
2022-08-26T22:49:24.603Z,13.10
2022-08-26T22:52:30.473Z,11.90
2022-08-26T22:55:18.877Z,11.60
2022-08-26T22:57:59.162Z,10.70
2022-08-26T23:00:32.296Z,10.20
2022-08-26T23:03:37.406Z,9.70
2022-08-26T23:06:24.907Z,9.10
2022-08-26T23:09:12.899Z,9.80
2022-08-26T23:11:50.254Z,9.60
2022-08-26T23:14:39.538Z,8.90
2022-08-26T23:17:14.124Z,9.40
2022-08-26T23:19:45.512Z,15.70
2022-08-26T23:22:30.998Z,36.50
2022-08-26T23:25:12.647Z,20.50
2022-08-26T23:27:46.147Z,12.70
2022-08-26T23:30:26.166Z,10.50
2022-08-26T23:32:54.337Z,10.80
2022-08-26T23:35:24.514Z,10.80
2022-08-26T23:37:54.500Z,10.60
2022-08-26T23:40:36.410Z,10.60
2022-08-26T23:43:30.228Z,9.90
2022-08-26T23:46:03.354Z,10.70
2022-08-26T23:48:43.703Z,10.80
2022-08-26T23:51:31.531Z,10.90
2022-08-26T23:53:59.065Z,10.20
2022-08-26T23:56:27.266Z,10.90
2022-08-26T23:58:57.937Z,10.30
